sensor_id;sensor_type;location;lat;lon;timestamp;temperature;humidity
12708;DHT22;6418;50.824;4.718;2023-05-07T00:01:29;14.10;99.90
12708;DHT22;6418;50.824;4.718;2023-05-07T00:04:11;14.10;99.90
12708;DHT22;6418;50.824;4.718;2023-05-07T00:06:58;14.10;99.90
12708;DHT22;6418;50.824;4.718;2023-05-07T00:09:45;14.00;99.90
12708;DHT22;6418;50.824;4.718;2023-05-07T00:12:20;14.10;99.90
12708;DHT22;6418;50.824;4.718;2023-05-07T00:15:14;14.20;99.90
12708;DHT22;6418;50.824;4.718;2023-05-07T00:17:51;14.20;99.90
12708;DHT22;6418;50.824;4.718;2023-05-07T00:20:37;14.20;99.90
12708;DHT22;6418;50.824;4.718;2023-05-07T00:23:09;14.20;99.90
12708;DHT22;6418;50.824;4.718;2023-05-07T00:25:44;14.20;99.90
12708;DHT22;6418;50.824;4.718;2023-05-07T00:28:19;14.20;99.90
12708;DHT22;6418;50.824;4.718;2023-05-07T00:31:06;14.20;99.90
12708;DHT22;6418;50.824;4.718;2023-05-07T00:34:01;14.20;99.90
12708;DHT22;6418;50.824;4.718;2023-05-07T00:36:46;14.20;99.90
12708;DHT22;6418;50.824;4.718;2023-05-07T00:39:21;14.20;99.90
12708;DHT22;6418;50.824;4.718;2023-05-07T00:42:00;14.20;99.90
12708;DHT22;6418;50.824;4.718;2023-05-07T00:44:35;14.00;99.90
12708;DHT22;6418;50.824;4.718;2023-05-07T00:47:13;14.20;99.90
12708;DHT22;6418;50.824;4.718;2023-05-07T00:49:46;14.20;99.90
12708;DHT22;6418;50.824;4.718;2023-05-07T00:52:29;14.20;99.90
12708;DHT22;6418;50.824;4.718;2023-05-07T00:55:11;14.20;99.90
12708;DHT22;6418;50.824;4.718;2023-05-07T00:57:46;14.20;99.90
12708;DHT22;6418;50.824;4.718;2023-05-07T01:00:25;14.20;99.90
12708;DHT22;6418;50.824;4.718;2023-05-07T01:03:03;14.20;99.90
12708;DHT22;6418;50.824;4.718;2023-05-07T01:05:41;14.20;99.90
12708;DHT22;6418;50.824;4.718;2023-05-07T01:08:28;14.20;99.90
12708;DHT22;6418;50.824;4.718;2023-05-07T01:11:03;13.70;99.90
12708;DHT22;6418;50.824;4.718;2023-05-07T01:13:43;14.20;99.90
12708;DHT22;6418;50.824;4.718;2023-05-07T01:16:17;14.20;99.90
12708;DHT22;6418;50.824;4.718;2023-05-07T01:18:48;14.20;99.90
12708;DHT22;6418;50.824;4.718;2023-05-07T01:21:25;14.30;99.90
12708;DHT22;6418;50.824;4.718;2023-05-07T01:23:59;14.20;99.90
12708;DHT22;6418;50.824;4.718;2023-05-07T01:26:32;14.20;99.90
12708;DHT22;6418;50.824;4.718;2023-05-07T01:29:06;14.20;99.90
12708;DHT22;6418;50.824;4.718;2023-05-07T01:31:37;14.20;99.90
12708;DHT22;6418;50.824;4.718;2023-05-07T01:34:22;14.20;99.90
12708;DHT22;6418;50.824;4.718;2023-05-07T01:37:04;14.20;99.90
12708;DHT22;6418;50.824;4.718;2023-05-07T01:39:37;14.20;99.90
12708;DHT22;6418;50.824;4.718;2023-05-07T01:42:12;14.20;99.90
12708;DHT22;6418;50.824;4.718;2023-05-07T01:44:53;13.80;99.90
12708;DHT22;6418;50.824;4.718;2023-05-07T01:47:36;14.20;99.90
12708;DHT22;6418;50.824;4.718;2023-05-07T01:50:21;14.20;99.90
12708;DHT22;6418;50.824;4.718;2023-05-07T01:52:58;14.30;99.90
12708;DHT22;6418;50.824;4.718;2023-05-07T01:55:50;14.30;99.90
12708;DHT22;6418;50.824;4.718;2023-05-07T01:58:22;14.20;99.90
12708;DHT22;6418;50.824;4.718;2023-05-07T02:01:00;14.20;99.90
12708;DHT22;6418;50.824;4.718;2023-05-07T02:03:41;14.70;99.90
12708;DHT22;6418;50.824;4.718;2023-05-07T02:06:19;14.20;99.90
12708;DHT22;6418;50.824;4.718;2023-05-07T02:09:06;14.20;99.90
12708;DHT22;6418;50.824;4.718;2023-05-07T02:11:39;14.20;99.90
12708;DHT22;6418;50.824;4.718;2023-05-07T02:14:12;14.20;99.90
12708;DHT22;6418;50.824;4.718;2023-05-07T02:16:48;14.20;99.90
12708;DHT22;6418;50.824;4.718;2023-05-07T02:19:24;14.20;99.90
12708;DHT22;6418;50.824;4.718;2023-05-07T02:22:05;14.20;99.90
12708;DHT22;6418;50.824;4.718;2023-05-07T02:24:37;13.80;99.90
12708;DHT22;6418;50.824;4.718;2023-05-07T02:27:53;14.20;99.90
12708;DHT22;6418;50.824;4.718;2023-05-07T02:30:26;14.20;99.90
12708;DHT22;6418;50.824;4.718;2023-05-07T02:33:03;14.20;99.90
12708;DHT22;6418;50.824;4.718;2023-05-07T02:35:36;14.20;99.90
12708;DHT22;6418;50.824;4.718;2023-05-07T02:38:12;14.10;99.90
12708;DHT22;6418;50.824;4.718;2023-05-07T02:40:50;14.20;99.90
12708;DHT22;6418;50.824;4.718;2023-05-07T02:43:24;14.20;99.90
12708;DHT22;6418;50.824;4.718;2023-05-07T02:46:07;14.20;99.90
12708;DHT22;6418;50.824;4.718;2023-05-07T02:48:39;14.20;99.90
12708;DHT22;6418;50.824;4.718;2023-05-07T02:51:17;14.50;99.90
12708;DHT22;6418;50.824;4.718;2023-05-07T02:53:48;14.20;99.90
12708;DHT22;6418;50.824;4.718;2023-05-07T02:56:32;14.20;99.90
12708;DHT22;6418;50.824;4.718;2023-05-07T02:59:15;14.20;99.90
12708;DHT22;6418;50.824;4.718;2023-05-07T03:01:52;14.20;99.90
12708;DHT22;6418;50.824;4.718;2023-05-07T03:04:35;14.10;99.90
12708;DHT22;6418;50.824;4.718;2023-05-07T03:07:14;14.60;99.90
12708;DHT22;6418;50.824;4.718;2023-05-07T03:10:02;13.70;99.90
12708;DHT22;6418;50.824;4.718;2023-05-07T03:12:37;14.10;99.90
12708;DHT22;6418;50.824;4.718;2023-05-07T03:15:22;14.10;99.90
12708;DHT22;6418;50.824;4.718;2023-05-07T03:17:55;14.10;99.90
12708;DHT22;6418;50.824;4.718;2023-05-07T03:20:32;14.00;99.90
12708;DHT22;6418;50.824;4.718;2023-05-07T03:23:15;14.00;99.90
12708;DHT22;6418;50.824;4.718;2023-05-07T03:25:48;13.90;99.90
12708;DHT22;6418;50.824;4.718;2023-05-07T03:28:32;15.10;99.90
12708;DHT22;6418;50.824;4.718;2023-05-07T03:31:15;13.90;99.90
12708;DHT22;6418;50.824;4.718;2023-05-07T03:33:59;13.80;99.90
12708;DHT22;6418;50.824;4.718;2023-05-07T03:36:45;14.00;99.90
12708;DHT22;6418;50.824;4.718;2023-05-07T03:39:33;14.00;99.90
12708;DHT22;6418;50.824;4.718;2023-05-07T03:42:08;13.80;99.90
12708;DHT22;6418;50.824;4.718;2023-05-07T03:44:42;13.90;99.90
12708;DHT22;6418;50.824;4.718;2023-05-07T03:47:26;14.00;99.90
12708;DHT22;6418;50.824;4.718;2023-05-07T03:50:03;13.90;99.90
12708;DHT22;6418;50.824;4.718;2023-05-07T03:52:39;13.90;99.90
12708;DHT22;6418;50.824;4.718;2023-05-07T03:55:17;13.90;99.90
12708;DHT22;6418;50.824;4.718;2023-05-07T03:58:00;13.90;99.90
12708;DHT22;6418;50.824;4.718;2023-05-07T04:00:42;13.80;99.90
12708;DHT22;6418;50.824;4.718;2023-05-07T04:03:39;13.90;99.90
12708;DHT22;6418;50.824;4.718;2023-05-07T04:09:29;14.00;99.90
12708;DHT22;6418;50.824;4.718;2023-05-07T04:19:01;13.90;99.90
12708;DHT22;6418;50.824;4.718;2023-05-07T04:21:39;13.90;99.90
12708;DHT22;6418;50.824;4.718;2023-05-07T04:24:16;13.90;99.90
12708;DHT22;6418;50.824;4.718;2023-05-07T04:27:01;13.90;99.90
12708;DHT22;6418;50.824;4.718;2023-05-07T04:29:34;13.90;99.90
12708;DHT22;6418;50.824;4.718;2023-05-07T04:32:23;14.00;99.90
12708;DHT22;6418;50.824;4.718;2023-05-07T04:35:15;13.90;99.90
12708;DHT22;6418;50.824;4.718;2023-05-07T04:37:56;13.90;99.90
12708;DHT22;6418;50.824;4.718;2023-05-07T04:40:23;13.90;99.90
12708;DHT22;6418;50.824;4.718;2023-05-07T04:42:50;14.00;99.90
12708;DHT22;6418;50.824;4.718;2023-05-07T04:45:18;13.90;99.90
12708;DHT22;6418;50.824;4.718;2023-05-07T04:47:45;13.90;99.90
12708;DHT22;6418;50.824;4.718;2023-05-07T04:50:14;13.90;99.90
12708;DHT22;6418;50.824;4.718;2023-05-07T04:52:41;13.90;99.90
12708;DHT22;6418;50.824;4.718;2023-05-07T04:55:09;13.90;99.90
12708;DHT22;6418;50.824;4.718;2023-05-07T04:57:36;13.90;99.90
12708;DHT22;6418;50.824;4.718;2023-05-07T05:00:05;13.90;99.90
12708;DHT22;6418;50.824;4.718;2023-05-07T05:02:34;13.90;99.90
12708;DHT22;6418;50.824;4.718;2023-05-07T05:05:01;13.90;99.90
12708;DHT22;6418;50.824;4.718;2023-05-07T05:07:29;14.00;99.90
12708;DHT22;6418;50.824;4.718;2023-05-07T05:09:57;14.00;99.90
12708;DHT22;6418;50.824;4.718;2023-05-07T05:12:24;14.00;99.90
12708;DHT22;6418;50.824;4.718;2023-05-07T05:14:51;14.10;99.90
12708;DHT22;6418;50.824;4.718;2023-05-07T05:17:18;14.10;99.90
12708;DHT22;6418;50.824;4.718;2023-05-07T05:19:45;14.10;99.90
12708;DHT22;6418;50.824;4.718;2023-05-07T05:22:12;14.20;99.90
12708;DHT22;6418;50.824;4.718;2023-05-07T05:24:40;14.20;99.90
12708;DHT22;6418;50.824;4.718;2023-05-07T05:27:07;14.20;99.90
12708;DHT22;6418;50.824;4.718;2023-05-07T05:29:34;14.30;99.90
12708;DHT22;6418;50.824;4.718;2023-05-07T05:32:01;14.30;99.90
12708;DHT22;6418;50.824;4.718;2023-05-07T05:34:28;14.30;99.90
12708;DHT22;6418;50.824;4.718;2023-05-07T05:36:55;14.40;99.90
12708;DHT22;6418;50.824;4.718;2023-05-07T05:39:23;14.40;99.90
12708;DHT22;6418;50.824;4.718;2023-05-07T05:41:51;14.50;99.90
12708;DHT22;6418;50.824;4.718;2023-05-07T05:44:18;14.50;99.90
12708;DHT22;6418;50.824;4.718;2023-05-07T05:46:45;14.50;99.90
12708;DHT22;6418;50.824;4.718;2023-05-07T05:49:12;14.60;99.90
12708;DHT22;6418;50.824;4.718;2023-05-07T05:51:41;14.60;99.90
12708;DHT22;6418;50.824;4.718;2023-05-07T05:54:09;14.60;99.90
12708;DHT22;6418;50.824;4.718;2023-05-07T05:56:36;14.70;99.90
12708;DHT22;6418;50.824;4.718;2023-05-07T05:59:05;14.80;99.90
12708;DHT22;6418;50.824;4.718;2023-05-07T06:01:32;14.80;99.90
12708;DHT22;6418;50.824;4.718;2023-05-07T06:03:59;14.90;99.90
12708;DHT22;6418;50.824;4.718;2023-05-07T06:06:26;14.90;99.90
12708;DHT22;6418;50.824;4.718;2023-05-07T06:08:53;15.00;99.90
12708;DHT22;6418;50.824;4.718;2023-05-07T06:11:20;15.10;99.90
12708;DHT22;6418;50.824;4.718;2023-05-07T06:13:48;15.10;99.90
12708;DHT22;6418;50.824;4.718;2023-05-07T06:16:16;15.20;99.90
12708;DHT22;6418;50.824;4.718;2023-05-07T06:18:43;15.20;99.90
12708;DHT22;6418;50.824;4.718;2023-05-07T06:21:12;15.30;99.90
12708;DHT22;6418;50.824;4.718;2023-05-07T06:23:39;15.30;99.90
12708;DHT22;6418;50.824;4.718;2023-05-07T06:26:07;15.40;99.90
12708;DHT22;6418;50.824;4.718;2023-05-07T06:28:34;15.50;99.90
12708;DHT22;6418;50.824;4.718;2023-05-07T06:31:11;15.50;99.90
12708;DHT22;6418;50.824;4.718;2023-05-07T06:33:40;15.60;99.90
12708;DHT22;6418;50.824;4.718;2023-05-07T06:36:07;15.60;99.90
12708;DHT22;6418;50.824;4.718;2023-05-07T06:38:34;15.70;99.90
12708;DHT22;6418;50.824;4.718;2023-05-07T06:41:01;15.70;99.90
12708;DHT22;6418;50.824;4.718;2023-05-07T06:43:28;15.70;99.90
12708;DHT22;6418;50.824;4.718;2023-05-07T06:45:55;15.80;99.90
12708;DHT22;6418;50.824;4.718;2023-05-07T06:48:22;15.80;99.90
12708;DHT22;6418;50.824;4.718;2023-05-07T06:50:51;15.80;99.90
12708;DHT22;6418;50.824;4.718;2023-05-07T06:53:18;15.80;99.90
12708;DHT22;6418;50.824;4.718;2023-05-07T06:55:45;15.90;99.90
12708;DHT22;6418;50.824;4.718;2023-05-07T06:58:12;15.90;99.90
12708;DHT22;6418;50.824;4.718;2023-05-07T07:00:39;16.00;99.90
12708;DHT22;6418;50.824;4.718;2023-05-07T07:03:07;15.90;99.90
12708;DHT22;6418;50.824;4.718;2023-05-07T07:05:34;16.00;99.90
12708;DHT22;6418;50.824;4.718;2023-05-07T07:08:02;16.10;99.90
12708;DHT22;6418;50.824;4.718;2023-05-07T07:10:29;16.10;99.90
12708;DHT22;6418;50.824;4.718;2023-05-07T07:12:56;16.10;99.90
12708;DHT22;6418;50.824;4.718;2023-05-07T07:15:23;16.20;99.90
12708;DHT22;6418;50.824;4.718;2023-05-07T07:17:51;16.20;99.90
12708;DHT22;6418;50.824;4.718;2023-05-07T07:20:18;16.30;99.90
12708;DHT22;6418;50.824;4.718;2023-05-07T07:22:45;16.30;99.90
12708;DHT22;6418;50.824;4.718;2023-05-07T07:25:14;16.30;99.90
12708;DHT22;6418;50.824;4.718;2023-05-07T07:27:40;16.30;99.90
12708;DHT22;6418;50.824;4.718;2023-05-07T07:30:08;16.40;99.90
12708;DHT22;6418;50.824;4.718;2023-05-07T07:32:35;16.40;99.90
12708;DHT22;6418;50.824;4.718;2023-05-07T07:35:02;16.40;99.90
12708;DHT22;6418;50.824;4.718;2023-05-07T07:37:30;16.40;99.90
12708;DHT22;6418;50.824;4.718;2023-05-07T07:39:57;16.40;99.90
12708;DHT22;6418;50.824;4.718;2023-05-07T07:42:25;16.50;99.90
12708;DHT22;6418;50.824;4.718;2023-05-07T07:44:52;16.60;99.90
12708;DHT22;6418;50.824;4.718;2023-05-07T07:47:19;16.60;99.90
12708;DHT22;6418;50.824;4.718;2023-05-07T07:49:46;16.60;99.90
12708;DHT22;6418;50.824;4.718;2023-05-07T07:52:13;16.70;99.90
12708;DHT22;6418;50.824;4.718;2023-05-07T07:54:41;16.70;99.90
12708;DHT22;6418;50.824;4.718;2023-05-07T07:57:08;16.70;99.90
12708;DHT22;6418;50.824;4.718;2023-05-07T07:59:37;16.70;99.90
12708;DHT22;6418;50.824;4.718;2023-05-07T08:02:05;16.70;99.90
12708;DHT22;6418;50.824;4.718;2023-05-07T08:04:32;16.80;99.90
12708;DHT22;6418;50.824;4.718;2023-05-07T08:06:59;16.80;99.90
12708;DHT22;6418;50.824;4.718;2023-05-07T08:09:29;16.80;99.90
12708;DHT22;6418;50.824;4.718;2023-05-07T08:11:56;16.80;99.90
12708;DHT22;6418;50.824;4.718;2023-05-07T08:14:23;16.70;99.90
12708;DHT22;6418;50.824;4.718;2023-05-07T08:16:51;16.80;99.90
12708;DHT22;6418;50.824;4.718;2023-05-07T08:19:19;16.80;99.90
12708;DHT22;6418;50.824;4.718;2023-05-07T08:21:47;16.80;99.90
12708;DHT22;6418;50.824;4.718;2023-05-07T08:24:14;16.80;99.90
12708;DHT22;6418;50.824;4.718;2023-05-07T08:26:41;16.80;99.90
12708;DHT22;6418;50.824;4.718;2023-05-07T08:29:09;16.80;99.90
12708;DHT22;6418;50.824;4.718;2023-05-07T08:31:36;16.80;99.90
12708;DHT22;6418;50.824;4.718;2023-05-07T08:34:05;16.80;99.90
12708;DHT22;6418;50.824;4.718;2023-05-07T08:36:33;16.70;99.90
12708;DHT22;6418;50.824;4.718;2023-05-07T08:39:00;16.70;99.90
12708;DHT22;6418;50.824;4.718;2023-05-07T08:41:28;16.70;99.90
12708;DHT22;6418;50.824;4.718;2023-05-07T08:43:58;16.70;99.90
12708;DHT22;6418;50.824;4.718;2023-05-07T08:46:25;16.70;99.90
12708;DHT22;6418;50.824;4.718;2023-05-07T08:48:55;16.60;99.90
12708;DHT22;6418;50.824;4.718;2023-05-07T08:51:23;16.70;99.90
12708;DHT22;6418;50.824;4.718;2023-05-07T08:53:51;16.60;99.90
12708;DHT22;6418;50.824;4.718;2023-05-07T08:56:18;16.60;99.90
12708;DHT22;6418;50.824;4.718;2023-05-07T08:58:46;16.60;99.90
12708;DHT22;6418;50.824;4.718;2023-05-07T09:01:14;16.60;99.90
12708;DHT22;6418;50.824;4.718;2023-05-07T09:03:44;16.60;99.90
12708;DHT22;6418;50.824;4.718;2023-05-07T09:06:12;16.70;99.90
12708;DHT22;6418;50.824;4.718;2023-05-07T09:08:49;16.70;99.90
12708;DHT22;6418;50.824;4.718;2023-05-07T09:11:20;16.70;99.90
12708;DHT22;6418;50.824;4.718;2023-05-07T09:13:47;16.70;99.90
12708;DHT22;6418;50.824;4.718;2023-05-07T09:16:15;16.80;99.90
12708;DHT22;6418;50.824;4.718;2023-05-07T09:18:43;16.80;99.90
12708;DHT22;6418;50.824;4.718;2023-05-07T09:21:10;16.80;99.90
12708;DHT22;6418;50.824;4.718;2023-05-07T09:23:38;16.90;99.90
12708;DHT22;6418;50.824;4.718;2023-05-07T09:26:07;16.90;99.90
12708;DHT22;6418;50.824;4.718;2023-05-07T09:28:41;16.90;99.90
12708;DHT22;6418;50.824;4.718;2023-05-07T09:31:08;16.90;99.90
12708;DHT22;6418;50.824;4.718;2023-05-07T09:33:35;16.90;99.90
12708;DHT22;6418;50.824;4.718;2023-05-07T09:36:03;16.90;99.90
12708;DHT22;6418;50.824;4.718;2023-05-07T09:38:31;17.00;99.90
12708;DHT22;6418;50.824;4.718;2023-05-07T09:41:05;16.90;99.90
12708;DHT22;6418;50.824;4.718;2023-05-07T09:43:34;16.90;99.90
12708;DHT22;6418;50.824;4.718;2023-05-07T09:46:08;16.90;99.90
12708;DHT22;6418;50.824;4.718;2023-05-07T09:48:40;16.90;99.90
12708;DHT22;6418;50.824;4.718;2023-05-07T09:51:15;16.90;99.90
12708;DHT22;6418;50.824;4.718;2023-05-07T09:53:45;16.90;99.90
12708;DHT22;6418;50.824;4.718;2023-05-07T09:56:13;16.90;99.90
12708;DHT22;6418;50.824;4.718;2023-05-07T09:58:43;16.90;99.90
12708;DHT22;6418;50.824;4.718;2023-05-07T10:01:12;16.90;99.90
12708;DHT22;6418;50.824;4.718;2023-05-07T10:03:40;16.90;99.90
12708;DHT22;6418;50.824;4.718;2023-05-07T10:06:09;16.90;99.90
12708;DHT22;6418;50.824;4.718;2023-05-07T10:08:36;16.90;99.90
12708;DHT22;6418;50.824;4.718;2023-05-07T10:11:07;16.90;99.90
12708;DHT22;6418;50.824;4.718;2023-05-07T10:13:34;16.90;99.90
12708;DHT22;6418;50.824;4.718;2023-05-07T10:16:05;17.00;99.90
12708;DHT22;6418;50.824;4.718;2023-05-07T10:18:33;17.00;99.90
12708;DHT22;6418;50.824;4.718;2023-05-07T10:21:04;17.00;99.90
12708;DHT22;6418;50.824;4.718;2023-05-07T10:23:33;17.00;99.90
12708;DHT22;6418;50.824;4.718;2023-05-07T10:26:02;17.00;99.90
12708;DHT22;6418;50.824;4.718;2023-05-07T10:28:33;17.10;99.90
12708;DHT22;6418;50.824;4.718;2023-05-07T10:31:15;17.10;99.90
12708;DHT22;6418;50.824;4.718;2023-05-07T10:33:47;17.10;99.90
12708;DHT22;6418;50.824;4.718;2023-05-07T10:36:16;17.10;99.90
12708;DHT22;6418;50.824;4.718;2023-05-07T10:38:43;17.10;99.90
12708;DHT22;6418;50.824;4.718;2023-05-07T10:41:11;17.20;99.90
12708;DHT22;6418;50.824;4.718;2023-05-07T10:43:40;17.20;99.90
12708;DHT22;6418;50.824;4.718;2023-05-07T10:46:15;17.20;99.90
12708;DHT22;6418;50.824;4.718;2023-05-07T10:49:07;17.20;99.90
12708;DHT22;6418;50.824;4.718;2023-05-07T10:51:34;17.30;99.90
12708;DHT22;6418;50.824;4.718;2023-05-07T10:54:23;17.30;99.90
12708;DHT22;6418;50.824;4.718;2023-05-07T10:56:50;17.30;99.90
12708;DHT22;6418;50.824;4.718;2023-05-07T10:59:37;17.30;99.90
12708;DHT22;6418;50.824;4.718;2023-05-07T11:02:09;17.40;99.90
12708;DHT22;6418;50.824;4.718;2023-05-07T11:04:39;17.40;99.90
12708;DHT22;6418;50.824;4.718;2023-05-07T11:07:28;17.40;99.90
12708;DHT22;6418;50.824;4.718;2023-05-07T11:10:02;17.40;99.90
12708;DHT22;6418;50.824;4.718;2023-05-07T11:12:49;17.40;99.90
12708;DHT22;6418;50.824;4.718;2023-05-07T11:15:35;17.50;99.90
12708;DHT22;6418;50.824;4.718;2023-05-07T11:18:04;17.50;99.90
12708;DHT22;6418;50.824;4.718;2023-05-07T11:20:51;17.50;99.90
12708;DHT22;6418;50.824;4.718;2023-05-07T11:23:56;17.50;99.90
12708;DHT22;6418;50.824;4.718;2023-05-07T11:26:30;17.50;99.90
12708;DHT22;6418;50.824;4.718;2023-05-07T11:28:58;17.60;99.90
12708;DHT22;6418;50.824;4.718;2023-05-07T11:31:27;17.60;99.90
12708;DHT22;6418;50.824;4.718;2023-05-07T11:33:57;17.60;99.90
12708;DHT22;6418;50.824;4.718;2023-05-07T11:36:24;17.60;99.90
12708;DHT22;6418;50.824;4.718;2023-05-07T11:38:52;17.60;99.90
12708;DHT22;6418;50.824;4.718;2023-05-07T11:41:19;17.70;99.90
12708;DHT22;6418;50.824;4.718;2023-05-07T11:43:54;17.60;99.90
12708;DHT22;6418;50.824;4.718;2023-05-07T11:46:22;17.70;99.90
12708;DHT22;6418;50.824;4.718;2023-05-07T11:48:49;17.70;99.90
12708;DHT22;6418;50.824;4.718;2023-05-07T11:51:22;17.60;99.90
12708;DHT22;6418;50.824;4.718;2023-05-07T11:53:50;17.70;99.90
12708;DHT22;6418;50.824;4.718;2023-05-07T11:56:18;17.80;99.90
12708;DHT22;6418;50.824;4.718;2023-05-07T11:58:46;17.80;99.90
12708;DHT22;6418;50.824;4.718;2023-05-07T12:01:14;18.00;99.90
12708;DHT22;6418;50.824;4.718;2023-05-07T12:03:43;18.00;99.90
12708;DHT22;6418;50.824;4.718;2023-05-07T12:06:12;18.10;99.90
12708;DHT22;6418;50.824;4.718;2023-05-07T12:08:42;18.20;99.90
12708;DHT22;6418;50.824;4.718;2023-05-07T12:11:10;18.30;99.90
12708;DHT22;6418;50.824;4.718;2023-05-07T12:13:39;18.30;99.90
12708;DHT22;6418;50.824;4.718;2023-05-07T12:16:07;18.40;99.90
12708;DHT22;6418;50.824;4.718;2023-05-07T12:18:36;18.40;99.90
12708;DHT22;6418;50.824;4.718;2023-05-07T12:21:05;18.50;99.90
12708;DHT22;6418;50.824;4.718;2023-05-07T12:23:33;18.50;99.90
12708;DHT22;6418;50.824;4.718;2023-05-07T12:26:02;18.60;99.90
12708;DHT22;6418;50.824;4.718;2023-05-07T12:28:29;18.60;99.90
12708;DHT22;6418;50.824;4.718;2023-05-07T12:30:57;18.70;99.90
12708;DHT22;6418;50.824;4.718;2023-05-07T12:33:25;18.70;99.90
12708;DHT22;6418;50.824;4.718;2023-05-07T12:35:55;18.70;99.90
12708;DHT22;6418;50.824;4.718;2023-05-07T12:38:22;18.70;99.90
12708;DHT22;6418;50.824;4.718;2023-05-07T12:40:50;18.70;99.90
12708;DHT22;6418;50.824;4.718;2023-05-07T12:43:20;18.70;99.90
12708;DHT22;6418;50.824;4.718;2023-05-07T12:45:50;18.70;99.90
12708;DHT22;6418;50.824;4.718;2023-05-07T12:48:17;18.80;99.90
12708;DHT22;6418;50.824;4.718;2023-05-07T12:50:49;18.80;99.90
12708;DHT22;6418;50.824;4.718;2023-05-07T12:53:16;18.80;99.90
12708;DHT22;6418;50.824;4.718;2023-05-07T12:55:44;18.80;99.90
12708;DHT22;6418;50.824;4.718;2023-05-07T12:58:16;18.90;99.90
12708;DHT22;6418;50.824;4.718;2023-05-07T13:00:47;18.90;99.90
12708;DHT22;6418;50.824;4.718;2023-05-07T13:03:22;19.00;99.90
12708;DHT22;6418;50.824;4.718;2023-05-07T13:05:50;19.00;99.90
12708;DHT22;6418;50.824;4.718;2023-05-07T13:08:31;18.90;99.90
12708;DHT22;6418;50.824;4.718;2023-05-07T13:10:59;19.00;99.90
12708;DHT22;6418;50.824;4.718;2023-05-07T13:13:29;19.00;99.90
12708;DHT22;6418;50.824;4.718;2023-05-07T13:15:58;19.00;99.90
12708;DHT22;6418;50.824;4.718;2023-05-07T13:18:26;19.00;99.90
12708;DHT22;6418;50.824;4.718;2023-05-07T13:20:53;19.10;99.90
12708;DHT22;6418;50.824;4.718;2023-05-07T13:23:20;19.10;99.90
12708;DHT22;6418;50.824;4.718;2023-05-07T13:25:48;19.10;99.90
12708;DHT22;6418;50.824;4.718;2023-05-07T13:28:16;19.20;99.90
12708;DHT22;6418;50.824;4.718;2023-05-07T13:30:43;19.20;99.90
12708;DHT22;6418;50.824;4.718;2023-05-07T13:33:11;19.30;99.90
12708;DHT22;6418;50.824;4.718;2023-05-07T13:35:38;19.30;99.90
12708;DHT22;6418;50.824;4.718;2023-05-07T13:38:05;19.30;99.90
12708;DHT22;6418;50.824;4.718;2023-05-07T13:40:32;19.40;99.90
12708;DHT22;6418;50.824;4.718;2023-05-07T13:43:00;19.40;99.90
12708;DHT22;6418;50.824;4.718;2023-05-07T13:45:28;19.40;99.90
12708;DHT22;6418;50.824;4.718;2023-05-07T13:47:56;19.40;99.90
12708;DHT22;6418;50.824;4.718;2023-05-07T13:50:25;19.30;99.90
12708;DHT22;6418;50.824;4.718;2023-05-07T13:52:55;19.30;99.90
12708;DHT22;6418;50.824;4.718;2023-05-07T13:55:24;19.20;99.90
12708;DHT22;6418;50.824;4.718;2023-05-07T13:57:55;19.20;99.90
12708;DHT22;6418;50.824;4.718;2023-05-07T14:00:23;19.20;99.90
12708;DHT22;6418;50.824;4.718;2023-05-07T14:02:50;19.20;99.90
12708;DHT22;6418;50.824;4.718;2023-05-07T14:05:17;19.10;99.90
12708;DHT22;6418;50.824;4.718;2023-05-07T14:07:46;19.10;99.90
12708;DHT22;6418;50.824;4.718;2023-05-07T14:10:14;19.10;99.90
12708;DHT22;6418;50.824;4.718;2023-05-07T14:12:41;19.00;99.90
12708;DHT22;6418;50.824;4.718;2023-05-07T14:15:09;19.10;99.90
12708;DHT22;6418;50.824;4.718;2023-05-07T14:17:36;19.10;99.90
12708;DHT22;6418;50.824;4.718;2023-05-07T14:20:04;19.10;99.90
12708;DHT22;6418;50.824;4.718;2023-05-07T14:22:32;19.10;99.90
12708;DHT22;6418;50.824;4.718;2023-05-07T14:25:01;19.00;99.90
12708;DHT22;6418;50.824;4.718;2023-05-07T14:27:28;19.00;99.90
12708;DHT22;6418;50.824;4.718;2023-05-07T14:29:55;19.10;99.90
12708;DHT22;6418;50.824;4.718;2023-05-07T14:32:22;19.10;99.90
12708;DHT22;6418;50.824;4.718;2023-05-07T14:34:49;19.00;99.90
12708;DHT22;6418;50.824;4.718;2023-05-07T14:37:16;19.00;99.90
12708;DHT22;6418;50.824;4.718;2023-05-07T14:39:45;19.00;99.90
12708;DHT22;6418;50.824;4.718;2023-05-07T14:42:13;19.00;99.90
12708;DHT22;6418;50.824;4.718;2023-05-07T14:44:40;19.00;99.90
12708;DHT22;6418;50.824;4.718;2023-05-07T14:47:08;19.00;99.90
12708;DHT22;6418;50.824;4.718;2023-05-07T14:49:35;19.00;99.90
12708;DHT22;6418;50.824;4.718;2023-05-07T14:52:02;19.00;99.90
12708;DHT22;6418;50.824;4.718;2023-05-07T14:54:33;19.00;99.90
12708;DHT22;6418;50.824;4.718;2023-05-07T14:57:00;19.00;99.90
12708;DHT22;6418;50.824;4.718;2023-05-07T14:59:29;19.00;99.90
12708;DHT22;6418;50.824;4.718;2023-05-07T15:01:56;19.00;99.90
12708;DHT22;6418;50.824;4.718;2023-05-07T15:04:24;19.00;99.90
12708;DHT22;6418;50.824;4.718;2023-05-07T15:06:51;18.90;99.90
12708;DHT22;6418;50.824;4.718;2023-05-07T15:09:19;18.90;99.90
12708;DHT22;6418;50.824;4.718;2023-05-07T15:11:46;18.90;99.90
12708;DHT22;6418;50.824;4.718;2023-05-07T15:14:13;18.90;99.90
12708;DHT22;6418;50.824;4.718;2023-05-07T15:16:41;18.90;99.90
12708;DHT22;6418;50.824;4.718;2023-05-07T15:19:08;18.90;99.90
12708;DHT22;6418;50.824;4.718;2023-05-07T15:21:35;18.90;99.90
12708;DHT22;6418;50.824;4.718;2023-05-07T15:24:02;18.90;99.90
12708;DHT22;6418;50.824;4.718;2023-05-07T15:26:30;18.90;99.90
12708;DHT22;6418;50.824;4.718;2023-05-07T15:28:56;18.90;99.90
12708;DHT22;6418;50.824;4.718;2023-05-07T15:31:23;18.80;99.90
12708;DHT22;6418;50.824;4.718;2023-05-07T15:33:52;18.80;99.90
12708;DHT22;6418;50.824;4.718;2023-05-07T15:36:20;18.80;99.90
12708;DHT22;6418;50.824;4.718;2023-05-07T15:38:47;18.80;99.90
12708;DHT22;6418;50.824;4.718;2023-05-07T15:41:14;18.90;99.90
12708;DHT22;6418;50.824;4.718;2023-05-07T15:43:45;18.90;99.90
12708;DHT22;6418;50.824;4.718;2023-05-07T15:46:13;18.90;99.90
12708;DHT22;6418;50.824;4.718;2023-05-07T15:48:43;19.00;99.90
12708;DHT22;6418;50.824;4.718;2023-05-07T15:51:12;19.00;99.90
12708;DHT22;6418;50.824;4.718;2023-05-07T15:53:39;19.00;99.90
12708;DHT22;6418;50.824;4.718;2023-05-07T15:56:06;19.00;99.90
12708;DHT22;6418;50.824;4.718;2023-05-07T15:58:33;19.00;99.90
12708;DHT22;6418;50.824;4.718;2023-05-07T16:01:00;19.00;99.90
12708;DHT22;6418;50.824;4.718;2023-05-07T16:03:27;19.10;99.90
12708;DHT22;6418;50.824;4.718;2023-05-07T16:05:55;19.10;99.90
12708;DHT22;6418;50.824;4.718;2023-05-07T16:08:24;19.10;99.90
12708;DHT22;6418;50.824;4.718;2023-05-07T16:10:51;19.20;99.90
12708;DHT22;6418;50.824;4.718;2023-05-07T16:13:18;19.20;99.90
12708;DHT22;6418;50.824;4.718;2023-05-07T16:15:45;19.20;99.90
12708;DHT22;6418;50.824;4.718;2023-05-07T16:18:12;19.20;99.90
12708;DHT22;6418;50.824;4.718;2023-05-07T16:20:41;19.20;99.90
12708;DHT22;6418;50.824;4.718;2023-05-07T16:23:09;19.30;99.90